Time;durP1;ratioP1;P1;durP2;ratioP2;P2;SDS_P1;SDS_P2;PMS_P1;PMS_P2;Temp;Humidity;BMP_temperature;BMP_pressure;BME280_temperature;BME280_humidity;BME280_pressure;Samples;Min_cycle;Max_cycle;Signal;HPM_P1;HPM_P2
2022/06/01 00:01:18;;;;;;;2.28;1.85;;;19.20;60.20;;;;;;5079626;28;20127;-73
2022/06/01 00:03:44;;;;;;;1.90;1.70;;;19.20;60.20;;;;;;5103050;28;20368;-73
2022/06/01 00:06:11;;;;;;;2.33;1.60;;;19.20;60.20;;;;;;5104670;28;20020;-73
2022/06/01 00:08:37;;;;;;;2.30;1.70;;;19.30;60.30;;;;;;5109997;28;20054;-74
2022/06/01 00:11:03;;;;;;;3.10;1.50;;;19.30;60.20;;;;;;5098957;28;20028;-73
2022/06/01 00:13:30;;;;;;;2.70;1.27;;;19.30;60.00;;;;;;5110602;28;20024;-73
2022/06/01 00:15:56;;;;;;;1.50;1.40;;;19.20;59.80;;;;;;5104558;28;20123;-74
2022/06/01 00:18:22;;;;;;;4.85;1.50;;;19.20;59.60;;;;;;5103118;28;20111;-73
2022/06/01 00:20:49;;;;;;;3.88;1.85;;;19.20;59.80;;;;;;5106732;28;20031;-73
2022/06/01 00:23:15;;;;;;;1.98;1.63;;;19.10;59.60;;;;;;5097644;28;20419;-73
2022/06/01 00:25:42;;;;;;;1.55;1.42;;;19.00;59.50;;;;;;5107506;28;20031;-73
2022/06/01 00:28:08;;;;;;;1.77;1.40;;;19.00;59.50;;;;;;5104609;28;20020;-73
2022/06/01 00:30:35;;;;;;;1.80;1.65;;;18.90;59.60;;;;;;5101127;28;20020;-73
2022/06/01 00:33:01;;;;;;;4.53;1.48;;;18.80;59.60;;;;;;5112022;28;20027;-73
2022/06/01 00:35:27;;;;;;;1.55;1.35;;;18.80;59.80;;;;;;5096198;28;20043;-73
2022/06/01 00:37:53;;;;;;;1.10;1.00;;;18.70;59.80;;;;;;5103754;28;20028;-73
2022/06/01 00:40:21;;;;;;;1.38;1.02;;;18.70;59.90;;;;;;5101767;28;20040;-74
2022/06/01 00:42:51;;;;;;;2.45;1.30;;;18.60;60.10;;;;;;5111045;28;20475;-73
2022/06/01 00:45:20;;;;;;;1.88;1.48;;;18.60;60.30;;;;;;5111944;28;20020;-74
2022/06/01 00:47:47;;;;;;;1.38;1.27;;;18.50;60.60;;;;;;5102328;28;20024;-73
2022/06/01 00:50:18;;;;;;;1.83;1.40;;;18.50;60.70;;;;;;5103874;28;20035;-73
2022/06/01 00:52:51;;;;;;;3.55;1.27;;;18.50;60.90;;;;;;5102694;28;20153;-73
2022/06/01 00:55:29;;;;;;;1.48;1.35;;;18.40;61.60;;;;;;5080460;28;20036;-73
2022/06/01 00:58:01;;;;;;;1.40;1.30;;;18.40;60.90;;;;;;5105293;28;20532;-73
2022/06/01 01:00:32;;;;;;;1.65;1.40;;;18.40;60.80;;;;;;5106899;28;20016;-73
2022/06/01 01:03:01;;;;;;;4.68;1.17;;;18.30;60.70;;;;;;5096640;28;20113;-73
2022/06/01 01:05:29;;;;;;;1.40;1.27;;;18.20;60.80;;;;;;5108168;28;20034;-73
2022/06/01 01:07:57;;;;;;;2.50;1.67;;;18.20;61.70;;;;;;5101166;28;20043;-73
2022/06/01 01:10:23;;;;;;;1.55;1.35;;;18.10;61.20;;;;;;5101840;28;20126;-73
2022/06/01 01:12:56;;;;;;;2.10;1.38;;;18.10;61.20;;;;;;5110772;28;20051;-73
2022/06/01 01:15:24;;;;;;;2.35;1.65;;;18.10;61.30;;;;;;5090601;28;20032;-73
2022/06/01 01:17:52;;;;;;;4.18;1.90;;;18.00;61.40;;;;;;5104835;28;20107;-73
2022/06/01 01:20:19;;;;;;;1.95;1.70;;;18.00;61.50;;;;;;5092961;28;20467;-73
2022/06/01 01:23:05;;;;;;;3.55;2.33;;;18.00;61.60;;;;;;5093984;28;20380;-73
2022/06/01 01:25:40;;;;;;;4.43;2.67;;;17.90;62.10;;;;;;5093934;28;20098;-73
2022/06/01 01:28:08;;;;;;;3.95;3.15;;;17.90;62.20;;;;;;5093878;28;20020;-73
2022/06/01 01:31:08;;;;;;;3.63;3.28;;;17.90;62.40;;;;;;5094112;28;20026;-73
2022/06/01 01:33:34;;;;;;;4.43;4.03;;;17.80;62.30;;;;;;5094105;28;20028;-73
2022/06/01 01:36:06;;;;;;;3.55;3.22;;;17.80;62.20;;;;;;5093705;28;20032;-73
2022/06/01 01:38:34;;;;;;;3.38;3.08;;;17.80;62.30;;;;;;5093759;28;20024;-73
2022/06/01 01:41:13;;;;;;;5.32;3.53;;;17.80;62.10;;;;;;5093890;28;20375;-74
2022/06/01 01:44:04;;;;;;;4.15;3.10;;;17.70;62.20;;;;;;5092602;28;20119;-73
2022/06/01 01:46:31;;;;;;;2.83;2.33;;;17.70;62.30;;;;;;5092462;28;20028;-73
2022/06/01 01:48:57;;;;;;;3.05;2.75;;;17.60;61.90;;;;;;5087967;28;20055;-73
2022/06/01 01:51:25;;;;;;;2.80;2.50;;;17.60;62.00;;;;;;5072123;28;20365;-73
2022/06/01 01:53:53;;;;;;;2.97;2.67;;;17.50;62.10;;;;;;5073092;28;20487;-73
2022/06/01 01:56:38;;;;;;;7.40;2.85;;;17.40;62.10;;;;;;5072004;28;20422;-73
2022/06/01 01:59:21;;;;;;;3.03;2.35;;;17.40;62.60;;;;;;5072082;28;20357;-73
2022/06/01 02:02:02;;;;;;;3.15;2.40;;;17.30;62.50;;;;;;5072044;28;20384;-73
2022/06/01 02:07:58;;;;;;;2.75;2.13;;;17.20;62.80;;;;;;5048201;28;20058;-73
2022/06/01 02:13:11;;;;;;;3.78;2.50;;;17.10;62.60;;;;;;5073191;28;20208;-74
2022/06/01 02:15:42;;;;;;;2.28;2.08;;;17.10;62.90;;;;;;5072292;28;20040;-75
2022/06/01 02:18:14;;;;;;;1.75;1.65;;;17.00;62.90;;;;;;5089886;28;20383;-73
2022/06/01 02:20:45;;;;;;;4.72;2.33;;;17.00;63.10;;;;;;5087351;28;20062;-73
2022/06/01 02:23:15;;;;;;;2.33;2.10;;;16.90;63.20;;;;;;5087473;28;20102;-70
2022/06/01 02:25:44;;;;;;;3.03;2.03;;;16.90;63.50;;;;;;5090761;28;20019;-70
2022/06/01 02:28:11;;;;;;;2.20;2.00;;;16.80;63.30;;;;;;5091700;28;20362;-70
2022/06/01 02:30:40;;;;;;;4.05;3.08;;;16.90;63.40;;;;;;5091349;28;20027;-70
2022/06/01 02:33:09;;;;;;;4.25;3.40;;;16.80;63.90;;;;;;5093612;28;20020;-70
2022/06/01 02:35:39;;;;;;;4.63;3.83;;;16.80;65.20;;;;;;5092001;28;20039;-70
2022/06/01 02:38:13;;;;;;;3.05;2.75;;;16.80;64.80;;;;;;5088604;28;20031;-71
2022/06/01 02:40:39;;;;;;;4.93;3.83;;;16.80;64.90;;;;;;5089282;28;20020;-70
2022/06/01 02:43:05;;;;;;;3.35;3.00;;;16.80;64.90;;;;;;5086667;28;20025;-70
2022/06/01 02:45:31;;;;;;;4.93;3.25;;;16.80;64.90;;;;;;5072738;28;20016;-71
2022/06/01 02:47:59;;;;;;;5.90;4.10;;;16.80;65.00;;;;;;5090541;28;20020;-70
2022/06/01 02:50:27;;;;;;;4.50;3.60;;;16.70;65.40;;;;;;5080686;28;20052;-71
2022/06/01 02:52:54;;;;;;;8.20;4.88;;;16.80;65.80;;;;;;5084298;28;20038;-70
2022/06/01 02:55:22;;;;;;;7.45;3.97;;;16.70;66.20;;;;;;5091608;28;20020;-71
2022/06/01 02:57:49;;;;;;;6.85;3.90;;;16.70;66.80;;;;;;5092199;28;20024;-70
2022/06/01 03:00:21;;;;;;;11.02;3.38;;;16.70;66.70;;;;;;5089226;28;20020;-71
2022/06/01 03:02:51;;;;;;;5.93;3.75;;;16.70;67.00;;;;;;5088808;28;20040;-71
2022/06/01 03:05:19;;;;;;;4.00;3.35;;;16.70;66.90;;;;;;5092911;28;20383;-71
2022/06/01 03:07:45;;;;;;;2.63;2.40;;;16.70;66.80;;;;;;5092301;28;20671;-71
2022/06/01 03:10:11;;;;;;;4.97;2.72;;;16.70;66.80;;;;;;5092897;28;20371;-71
2022/06/01 03:12:37;;;;;;;3.92;2.88;;;16.70;66.40;;;;;;5091450;28;20111;-70
2022/06/01 03:15:05;;;;;;;3.15;2.85;;;16.60;66.20;;;;;;5080367;28;20033;-70
2022/06/01 03:17:30;;;;;;;3.00;2.70;;;16.60;66.10;;;;;;5071314;28;20400;-71
2022/06/01 03:19:57;;;;;;;3.85;2.67;;;16.60;66.10;;;;;;5072560;28;20032;-71
2022/06/01 03:22:23;;;;;;;3.30;2.50;;;16.60;66.00;;;;;;5072554;28;20028;-70
2022/06/01 03:24:49;;;;;;;3.30;3.00;;;16.60;65.90;;;;;;5071245;28;20021;-71
2022/06/01 03:27:15;;;;;;;4.03;3.47;;;16.60;66.00;;;;;;5071249;28;20032;-71
2022/06/01 03:29:40;;;;;;;3.15;2.83;;;16.60;66.20;;;;;;5078588;28;20028;-70
2022/06/01 03:32:07;;;;;;;3.47;2.72;;;16.60;66.20;;;;;;5095071;28;20416;-71
2022/06/01 03:34:32;;;;;;;3.63;2.75;;;16.60;66.30;;;;;;5095869;28;20104;-71
2022/06/01 03:36:58;;;;;;;2.78;2.35;;;16.50;66.10;;;;;;5094948;28;20122;-71
2022/06/01 03:39:24;;;;;;;3.50;3.10;;;16.60;66.30;;;;;;5096390;28;20086;-71
2022/06/01 03:41:50;;;;;;;4.38;3.00;;;16.60;66.50;;;;;;5096269;28;20028;-71
2022/06/01 03:47:05;;;;;;;3.80;3.35;;;16.60;67.00;;;;;;5095341;28;20039;-70
2022/06/01 03:49:32;;;;;;;3.47;2.97;;;16.60;67.20;;;;;;5075754;28;20083;-70
2022/06/01 03:51:58;;;;;;;4.60;3.38;;;16.70;67.20;;;;;;5091238;28;20043;-70
2022/06/01 03:54:24;;;;;;;5.05;2.85;;;16.70;67.30;;;;;;5096090;28;20353;-70
2022/06/01 03:56:51;;;;;;;5.80;3.65;;;16.70;67.50;;;;;;5094751;28;20067;-70
2022/06/01 03:59:17;;;;;;;4.20;3.78;;;16.80;68.60;;;;;;5095573;28;20032;-70
2022/06/01 04:01:42;;;;;;;6.22;3.67;;;16.80;68.70;;;;;;5095054;28;20038;-70
2022/06/01 04:04:08;;;;;;;5.13;3.90;;;16.90;68.10;;;;;;5095933;28;20031;-70
2022/06/01 04:06:34;;;;;;;6.60;3.92;;;17.00;68.10;;;;;;5095774;28;20028;-70
2022/06/01 04:09:00;;;;;;;5.13;3.45;;;17.00;68.10;;;;;;5095278;28;20055;-70
2022/06/01 04:11:26;;;;;;;5.07;3.80;;;17.10;68.20;;;;;;5095776;28;20035;-70
2022/06/01 04:13:52;;;;;;;4.75;3.35;;;17.20;68.00;;;;;;5085779;28;20029;-70
2022/06/01 04:16:19;;;;;;;5.43;3.95;;;17.30;67.90;;;;;;5080998;28;20519;-70
2022/06/01 04:18:46;;;;;;;6.53;3.90;;;17.30;67.70;;;;;;5095639;28;20036;-70
2022/06/01 04:21:12;;;;;;;7.20;4.43;;;17.40;67.50;;;;;;5095581;28;20027;-70
2022/06/01 04:23:38;;;;;;;6.40;4.13;;;17.40;67.30;;;;;;5093996;28;20036;-70
2022/06/01 04:26:03;;;;;;;3.80;3.30;;;17.40;67.10;;;;;;5095515;28;20050;-70
2022/06/01 04:28:29;;;;;;;4.43;3.40;;;17.50;67.10;;;;;;5093819;28;20172;-70
2022/06/01 04:30:55;;;;;;;3.92;3.53;;;17.50;67.20;;;;;;5093328;28;20472;-70
2022/06/01 04:33:21;;;;;;;6.38;3.95;;;17.60;67.40;;;;;;5095246;28;20028;-70
2022/06/01 04:35:47;;;;;;;8.90;4.30;;;17.70;67.50;;;;;;5095074;28;20075;-70
2022/06/01 04:38:12;;;;;;;4.55;3.97;;;17.80;67.50;;;;;;5094885;28;20106;-71
2022/06/01 04:40:47;;;;;;;5.35;3.17;;;17.80;67.20;;;;;;5094189;28;20028;-71
2022/06/01 04:43:16;;;;;;;5.30;3.67;;;17.90;67.00;;;;;;5093068;28;20059;-70
2022/06/01 04:45:42;;;;;;;3.17;2.85;;;18.00;66.80;;;;;;5089257;28;20036;-70
2022/06/01 04:48:09;;;;;;;4.25;2.80;;;18.10;66.60;;;;;;5089197;28;20040;-70
2022/06/01 04:50:34;;;;;;;3.83;3.00;;;18.20;66.60;;;;;;5093640;28;20024;-71
2022/06/01 04:53:01;;;;;;;5.65;3.15;;;18.30;66.50;;;;;;5094964;28;20034;-70
2022/06/01 04:55:27;;;;;;;3.30;3.00;;;18.40;66.30;;;;;;5093041;28;20040;-70
2022/06/01 04:57:52;;;;;;;4.32;3.30;;;18.50;66.20;;;;;;5094438;28;20080;-70
2022/06/01 05:00:19;;;;;;;4.85;3.10;;;18.60;66.90;;;;;;5094732;28;20141;-70
2022/06/01 05:02:45;;;;;;;4.00;3.10;;;18.70;65.80;;;;;;5089255;28;20025;-70
2022/06/01 05:05:11;;;;;;;11.43;2.85;;;18.80;65.70;;;;;;5093329;28;20365;-70
2022/06/01 05:07:36;;;;;;;2.95;2.50;;;18.90;65.40;;;;;;5093201;28;20052;-71
2022/06/01 05:10:03;;;;;;;6.32;4.28;;;19.00;65.20;;;;;;5093980;28;20115;-70
2022/06/01 05:12:29;;;;;;;8.85;3.20;;;19.00;65.00;;;;;;5082265;28;20031;-70
2022/06/01 05:14:55;;;;;;;8.13;3.33;;;19.10;64.60;;;;;;5081611;28;20032;-70
2022/06/01 05:17:20;;;;;;;5.97;2.95;;;19.10;64.40;;;;;;5091932;28;20481;-71
2022/06/01 05:19:46;;;;;;;4.47;2.70;;;19.20;64.00;;;;;;5093111;28;20024;-71
2022/06/01 05:22:12;;;;;;;3.38;2.72;;;19.20;63.80;;;;;;5092957;28;20024;-70
2022/06/01 05:24:38;;;;;;;3.30;3.00;;;19.30;64.00;;;;;;5093856;28;20059;-70
2022/06/01 05:27:04;;;;;;;5.10;3.10;;;19.30;63.60;;;;;;5092019;28;20409;-70
2022/06/01 05:29:30;;;;;;;3.38;3.00;;;19.40;63.40;;;;;;5093772;28;20043;-70
2022/06/01 05:31:55;;;;;;;5.40;3.42;;;19.50;63.50;;;;;;5092150;28;20464;-70
2022/06/01 05:34:21;;;;;;;3.15;2.47;;;19.60;63.50;;;;;;5094495;28;20050;-70
2022/06/01 05:36:47;;;;;;;5.82;2.63;;;19.60;63.60;;;;;;5093985;28;20039;-70
2022/06/01 05:39:13;;;;;;;6.53;2.92;;;19.70;63.70;;;;;;5092942;28;20495;-70
2022/06/01 05:41:40;;;;;;;4.97;3.25;;;19.80;63.40;;;;;;5093923;28;20102;-71
2022/06/01 05:44:06;;;;;;;4.00;2.78;;;20.00;63.10;;;;;;5092303;28;20024;-71
2022/06/01 05:46:35;;;;;;;7.80;3.08;;;20.10;62.50;;;;;;5092454;28;20028;-71
2022/06/01 05:49:02;;;;;;;12.40;3.55;;;20.10;62.00;;;;;;5092681;28;20031;-70
2022/06/01 05:51:28;;;;;;;6.63;3.60;;;20.10;61.60;;;;;;5093922;28;20028;-70
2022/06/01 05:53:54;;;;;;;4.63;3.53;;;20.10;61.40;;;;;;5091844;28;20031;-70
2022/06/01 05:56:20;;;;;;;5.90;3.15;;;20.10;61.40;;;;;;5091899;28;20112;-70
2022/06/01 05:58:48;;;;;;;6.18;3.05;;;20.10;61.50;;;;;;5093191;28;20031;-70
2022/06/01 06:01:14;;;;;;;5.35;3.30;;;20.10;61.50;;;;;;5092367;28;20036;-70
2022/06/01 06:03:40;;;;;;;3.97;3.25;;;20.10;61.50;;;;;;5073365;28;20469;-71
2022/06/01 06:06:12;;;;;;;8.60;3.55;;;20.10;61.60;;;;;;5093481;28;20056;-70
2022/06/01 06:08:39;;;;;;;4.22;3.22;;;20.20;61.80;;;;;;5091849;28;20047;-70
2022/06/01 06:11:06;;;;;;;7.75;3.30;;;20.20;61.60;;;;;;5083977;28;20028;-71
2022/06/01 06:13:36;;;;;;;8.15;3.28;;;20.20;61.60;;;;;;5073541;28;20025;-71
2022/06/01 06:16:03;;;;;;;3.83;3.05;;;20.20;61.60;;;;;;5093643;28;20039;-71
2022/06/01 06:18:30;;;;;;;3.28;2.97;;;20.20;61.70;;;;;;5090834;28;20039;-71
2022/06/01 06:20:56;;;;;;;5.43;3.10;;;20.30;61.80;;;;;;5093169;28;20024;-70
2022/06/01 06:23:21;;;;;;;5.28;3.55;;;20.30;61.60;;;;;;5093434;28;20038;-71
2022/06/01 06:25:48;;;;;;;4.55;3.28;;;20.20;61.30;;;;;;5092820;28;20028;-71
2022/06/01 06:28:14;;;;;;;10.45;4.03;;;20.30;61.20;;;;;;5091554;28;20021;-71
2022/06/01 06:30:41;;;;;;;10.75;4.25;;;20.20;61.30;;;;;;5091809;28;20461;-71
2022/06/01 06:33:07;;;;;;;8.35;3.65;;;20.30;61.30;;;;;;5093304;28;20023;-71
2022/06/01 06:35:34;;;;;;;5.22;2.75;;;20.30;61.20;;;;;;5093403;28;20055;-71
2022/06/01 06:38:01;;;;;;;3.03;2.72;;;20.30;61.40;;;;;;5090790;28;20047;-72
2022/06/01 06:40:27;;;;;;;6.28;2.63;;;20.30;61.20;;;;;;5092027;28;20027;-71
2022/06/01 06:42:53;;;;;;;6.47;3.85;;;20.30;61.30;;;;;;5093416;28;20032;-71
2022/06/01 06:45:19;;;;;;;5.25;3.58;;;20.40;61.60;;;;;;5093012;28;20032;-71
2022/06/01 06:47:45;;;;;;;7.03;3.50;;;20.50;61.30;;;;;;5092935;28;20199;-71
2022/06/01 06:50:13;;;;;;;9.38;2.67;;;20.50;61.10;;;;;;5092050;28;20094;-71
2022/06/01 06:52:39;;;;;;;4.28;2.33;;;20.50;60.70;;;;;;5091955;28;20024;-70
2022/06/01 06:55:07;;;;;;;3.10;2.10;;;20.50;60.90;;;;;;5093063;28;20452;-70
2022/06/01 06:57:33;;;;;;;6.50;2.00;;;20.60;61.00;;;;;;5091760;28;20032;-71
2022/06/01 06:59:59;;;;;;;2.90;1.90;;;20.70;60.50;;;;;;5090738;28;20032;-71
2022/06/01 07:02:24;;;;;;;2.83;1.77;;;20.70;60.30;;;;;;5088536;28;20016;-70
2022/06/01 07:04:50;;;;;;;2.58;1.90;;;20.80;60.00;;;;;;5092856;28;20418;-71
2022/06/01 07:07:16;;;;;;;3.20;2.25;;;20.80;59.60;;;;;;5095048;28;20020;-71
2022/06/01 07:09:43;;;;;;;2.08;1.88;;;21.00;59.60;;;;;;5095905;28;20036;-70
2022/06/01 07:12:10;;;;;;;5.40;2.03;;;21.00;59.20;;;;;;5081866;28;20135;-71
2022/06/01 07:14:36;;;;;;;2.63;1.70;;;21.10;58.90;;;;;;5080743;28;20024;-71
2022/06/01 07:17:02;;;;;;;4.63;2.30;;;21.20;58.80;;;;;;5092706;28;20074;-71
2022/06/01 07:19:29;;;;;;;2.42;1.80;;;21.30;58.80;;;;;;5096067;28;20032;-70
2022/06/01 07:21:55;;;;;;;1.60;1.20;;;21.40;58.20;;;;;;5093781;28;20036;-71
2022/06/01 07:24:22;;;;;;;4.72;1.33;;;21.50;56.30;;;;;;5097122;28;20028;-71
2022/06/01 07:26:48;;;;;;;1.65;1.17;;;21.50;55.60;;;;;;5091212;28;20037;-71
2022/06/01 07:29:16;;;;;;;3.38;1.90;;;21.60;55.00;;;;;;5095854;28;20032;-71
2022/06/01 07:31:43;;;;;;;1.27;1.17;;;21.50;54.40;;;;;;5097069;28;20020;-71
2022/06/01 07:34:08;;;;;;;2.38;1.27;;;21.60;53.90;;;;;;5094660;28;20066;-70
2022/06/01 07:36:35;;;;;;;3.90;1.25;;;21.60;54.20;;;;;;5095089;28;20060;-71
2022/06/01 07:44:40;;;;;;;3.42;1.40;;;21.70;53.10;;;;;;5095953;28;20054;-71
2022/06/01 07:47:08;;;;;;;2.00;1.35;;;21.70;52.80;;;;;;5096103;28;20442;-71
2022/06/01 07:49:34;;;;;;;5.82;1.15;;;21.70;53.40;;;;;;5095308;28;20038;-71
2022/06/01 07:52:00;;;;;;;4.65;1.42;;;21.70;53.10;;;;;;5095182;28;20127;-70
2022/06/01 07:54:26;;;;;;;2.60;1.65;;;21.70;52.60;;;;;;5095814;28;20031;-70
2022/06/01 07:56:52;;;;;;;3.47;1.80;;;21.70;53.90;;;;;;5094607;28;20036;-70
2022/06/01 07:59:18;;;;;;;2.28;1.67;;;21.70;52.90;;;;;;5093416;28;20499;-70
2022/06/01 08:01:44;;;;;;;4.13;1.83;;;21.80;52.40;;;;;;5094707;28;20032;-70
2022/06/01 08:04:10;;;;;;;2.55;1.90;;;21.80;52.70;;;;;;5095979;28;20020;-70
2022/06/01 08:06:38;;;;;;;7.07;1.98;;;21.90;52.60;;;;;;5095472;28;20058;-70
2022/06/01 08:09:04;;;;;;;4.68;2.40;;;21.90;52.60;;;;;;5086643;28;20044;-70
2022/06/01 08:14:15;;;;;;;5.05;2.63;;;22.00;52.20;;;;;;5093989;28;20039;-70
2022/06/01 08:16:44;;;;;;;4.07;2.17;;;22.10;52.00;;;;;;5094309;28;20040;-70
2022/06/01 08:19:11;;;;;;;4.43;2.67;;;22.10;51.90;;;;;;5091983;28;20391;-70
2022/06/01 08:21:37;;;;;;;2.70;1.90;;;22.10;51.40;;;;;;5095611;28;20023;-70
2022/06/01 08:24:04;;;;;;;5.03;2.88;;;22.10;51.60;;;;;;5095583;28;20031;-70
2022/06/01 08:26:31;;;;;;;4.88;2.38;;;22.20;51.40;;;;;;5095287;28;20490;-70
2022/06/01 08:28:57;;;;;;;2.97;2.50;;;22.20;51.90;;;;;;5093339;28;20035;-69
2022/06/01 08:31:27;;;;;;;4.32;2.78;;;22.20;51.40;;;;;;5081846;28;20029;-69
2022/06/01 08:33:55;;;;;;;3.95;3.15;;;22.20;51.40;;;;;;5080328;28;20028;-70
2022/06/01 08:36:21;;;;;;;6.18;2.85;;;22.20;51.30;;;;;;5089135;28;20126;-69
2022/06/01 08:38:47;;;;;;;4.93;2.72;;;22.20;50.80;;;;;;5090328;28;20111;-70
2022/06/01 08:41:14;;;;;;;3.08;2.28;;;22.20;51.00;;;;;;5094716;28;20066;-70
2022/06/01 08:43:54;;;;;;;4.10;2.58;;;22.30;51.30;;;;;;5075680;28;20039;-70
2022/06/01 08:46:22;;;;;;;3.05;2.40;;;22.30;51.20;;;;;;5094342;28;20037;-70
2022/06/01 08:48:50;;;;;;;4.60;2.28;;;22.40;51.30;;;;;;5092156;28;20267;-70
2022/06/01 08:51:19;;;;;;;3.33;2.53;;;22.40;51.10;;;;;;5094084;28;20054;-70
2022/06/01 08:53:45;;;;;;;2.40;2.20;;;22.50;51.20;;;;;;5093722;28;20077;-70
2022/06/01 08:56:25;;;;;;;3.28;2.60;;;22.60;51.40;;;;;;5095068;28;20064;-70
2022/06/01 08:59:28;;;;;;;9.65;2.45;;;22.60;50.80;;;;;;5095416;28;20023;-70
2022/06/01 09:02:22;;;;;;;16.50;4.75;;;22.70;51.10;;;;;;5095145;28;20035;-70
2022/06/01 09:05:04;;;;;;;5.75;3.17;;;22.70;50.40;;;;;;5090730;28;20166;-70
2022/06/01 09:07:48;;;;;;;3.20;2.42;;;22.80;50.40;;;;;;5074231;28;20468;-70
2022/06/01 09:10:43;;;;;;;4.32;2.63;;;22.80;50.20;;;;;;5073366;28;20055;-70
2022/06/01 09:13:13;;;;;;;4.53;2.90;;;22.90;50.40;;;;;;5079624;28;20443;-71
2022/06/01 09:16:14;;;;;;;6.25;2.83;;;23.00;49.90;;;;;;5079860;28;20089;-70
2022/06/01 09:18:48;;;;;;;7.03;3.13;;;23.00;49.70;;;;;;5083357;28;20047;-70
2022/06/01 09:24:14;;;;;;;3.50;2.75;;;23.10;50.20;;;;;;5093898;28;20093;-70
2022/06/01 09:27:06;;;;;;;5.80;2.72;;;23.20;49.60;;;;;;5093342;28;20078;-70
2022/06/01 09:29:36;;;;;;;3.60;2.15;;;23.20;50.00;;;;;;5093971;28;20503;-70
2022/06/01 09:32:07;;;;;;;3.03;2.38;;;23.30;49.90;;;;;;5092127;28;20102;-70
2022/06/01 09:34:47;;;;;;;4.03;2.35;;;23.40;49.90;;;;;;5093070;28;20431;-70
2022/06/01 09:37:26;;;;;;;3.58;2.55;;;23.50;49.60;;;;;;5093545;28;20039;-70
2022/06/01 09:39:56;;;;;;;3.13;2.20;;;23.60;49.10;;;;;;5093565;28;20111;-70
2022/06/01 09:42:34;;;;;;;3.92;2.13;;;23.70;48.80;;;;;;5089502;28;20468;-70
2022/06/01 09:45:02;;;;;;;3.13;2.22;;;23.80;48.50;;;;;;5105380;28;20024;-70
2022/06/01 09:47:42;;;;;;;4.82;2.70;;;23.80;47.70;;;;;;5097853;28;20214;-70
2022/06/01 09:50:23;;;;;;;4.50;2.67;;;23.90;47.70;;;;;;5096632;28;20032;-70
2022/06/01 09:52:50;;;;;;;4.88;2.53;;;23.90;47.80;;;;;;5092810;28;20550;-70
2022/06/01 09:55:22;;;;;;;2.90;2.30;;;23.90;46.80;;;;;;5091297;28;20028;-70
2022/06/01 09:58:05;;;;;;;2.45;2.10;;;23.90;47.10;;;;;;5092574;28;20105;-70
2022/06/01 10:06:20;;;;;;;3.95;2.10;;;24.00;47.80;;;;;;5089418;28;20051;-70
2022/06/01 10:09:02;;;;;;;5.93;1.98;;;24.00;47.80;;;;;;5093475;28;20047;-70
2022/06/01 10:11:48;;;;;;;3.33;2.00;;;24.10;47.40;;;;;;5092499;28;20463;-70
2022/06/01 10:14:16;;;;;;;4.90;2.10;;;24.10;47.30;;;;;;5091557;28;20035;-70
2022/06/01 10:16:55;;;;;;;4.57;1.98;;;24.10;46.90;;;;;;5093614;28;20046;-70
2022/06/01 10:19:29;;;;;;;5.38;2.00;;;24.10;47.40;;;;;;5092338;28;20460;-71
2022/06/01 10:22:04;;;;;;;4.45;2.17;;;24.20;47.70;;;;;;5093479;28;20112;-70
2022/06/01 10:24:40;;;;;;;2.20;1.70;;;24.30;46.90;;;;;;5092364;28;20387;-71
2022/06/01 10:27:06;;;;;;;4.90;2.08;;;24.40;46.80;;;;;;5088284;28;20031;-70
2022/06/01 10:29:49;;;;;;;5.50;1.80;;;24.50;47.20;;;;;;5091933;28;20111;-70
2022/06/01 10:32:40;;;;;;;2.67;1.70;;;24.50;47.00;;;;;;5093135;28;20035;-70
2022/06/01 10:35:31;;;;;;;3.15;1.85;;;24.60;46.60;;;;;;5090800;28;20288;-71
2022/06/01 10:38:17;;;;;;;6.13;1.70;;;24.70;46.50;;;;;;5092697;28;20124;-71
2022/06/01 10:40:53;;;;;;;3.78;1.90;;;24.70;45.60;;;;;;5091377;28;20100;-72
2022/06/01 10:43:48;;;;;;;2.85;1.60;;;24.70;45.40;;;;;;5077383;28;20028;-72
2022/06/01 10:46:21;;;;;;;;;;;24.60;44.60;;;;;;5073486;28;20025;-72
2022/06/01 10:49:10;;;;;;;3.65;1.70;;;24.70;45.50;;;;;;5073465;28;19904;-72
2022/06/01 10:51:37;;;;;;;2.63;1.70;;;24.60;43.30;;;;;;5073445;28;20025;-72
2022/06/01 10:54:19;;;;;;;2.35;1.48;;;24.60;43.20;;;;;;5088298;28;20071;-72
2022/06/01 10:56:46;;;;;;;2.45;1.38;;;24.60;43.30;;;;;;5073209;28;20434;-72
2022/06/01 10:59:15;;;;;;;3.17;1.67;;;24.60;43.90;;;;;;5073069;28;20017;-72
2022/06/01 11:02:16;;;;;;;2.00;1.25;;;24.70;43.40;;;;;;5071639;28;20464;-72
2022/06/01 11:04:51;;;;;;;3.60;1.30;;;24.70;43.70;;;;;;5087795;28;20032;-73
2022/06/01 11:07:41;;;;;;;3.78;1.77;;;24.90;44.10;;;;;;5092972;28;20060;-72
2022/06/01 11:10:14;;;;;;;2.15;1.40;;;25.10;44.20;;;;;;5091940;28;20032;-72
2022/06/01 11:13:20;;;;;;;2.95;1.13;;;25.30;43.50;;;;;;5091968;28;20434;-72
2022/06/01 11:15:58;;;;;;;4.13;1.63;;;25.50;43.10;;;;;;5091848;28;20063;-72
2022/06/01 11:18:42;;;;;;;3.55;1.73;;;25.60;41.10;;;;;;5086278;28;20115;-72
2022/06/01 11:21:24;;;;;;;3.63;1.40;;;25.70;41.30;;;;;;5073053;28;20051;-72
2022/06/01 11:24:28;;;;;;;4.07;1.25;;;25.70;41.00;;;;;;5071589;28;20025;-73
2022/06/01 11:27:18;;;;;;;1.67;1.30;;;25.80;41.60;;;;;;4974707;28;20062;-72
2022/06/01 11:30:02;;;;;;;1.42;1.05;;;25.80;40.70;;;;;;5068912;28;20036;-72
2022/06/01 11:32:52;;;;;;;1.80;1.05;;;25.90;40.30;;;;;;5072320;28;20033;-72
2022/06/01 11:35:22;;;;;;;4.60;1.80;;;26.00;40.20;;;;;;5069879;28;20051;-71
2022/06/01 11:37:52;;;;;;;1.65;1.00;;;26.10;40.10;;;;;;5071300;28;20534;-72
2022/06/01 11:40:31;;;;;;;1.60;1.20;;;26.20;39.80;;;;;;5072231;28;20078;-72
2022/06/01 11:43:18;;;;;;;3.03;1.27;;;26.30;38.90;;;;;;5072648;28;20108;-72
2022/06/01 11:45:58;;;;;;;2.75;1.30;;;26.30;39.00;;;;;;5072683;28;20066;-72
2022/06/01 11:48:33;;;;;;;1.60;1.25;;;26.30;38.70;;;;;;5072360;28;20023;-72
2022/06/01 11:51:21;;;;;;;4.03;1.55;;;26.40;39.20;;;;;;5072208;28;20101;-73
2022/06/01 11:54:05;;;;;;;1.83;1.23;;;26.40;38.80;;;;;;5074829;28;20036;-72
2022/06/01 11:56:59;;;;;;;5.32;1.55;;;26.60;38.90;;;;;;5076036;28;20037;-72
2022/06/01 11:59:47;;;;;;;2.70;1.33;;;26.70;39.10;;;;;;5076144;28;20461;-72
2022/06/01 12:02:19;;;;;;;2.63;1.38;;;26.80;38.80;;;;;;5082140;28;20380;-72
2022/06/01 12:04:55;;;;;;;2.83;1.38;;;26.90;38.60;;;;;;5095771;28;20440;-72
2022/06/01 12:07:37;;;;;;;7.22;1.25;;;27.10;37.70;;;;;;5096188;28;20032;-72
2022/06/01 12:10:27;;;;;;;1.67;1.20;;;27.30;37.90;;;;;;5096207;28;20055;-72
2022/06/01 12:13:17;;;;;;;2.05;1.30;;;27.50;36.70;;;;;;5096046;28;20066;-72
2022/06/01 12:16:21;;;;;;;2.13;1.48;;;27.70;36.40;;;;;;5095417;28;20045;-72
2022/06/01 12:19:08;;;;;;;2.33;1.20;;;27.90;37.00;;;;;;5096000;28;20099;-72
2022/06/01 12:21:43;;;;;;;10.63;2.03;;;28.10;36.40;;;;;;5095972;28;20420;-73
2022/06/01 12:30:11;;;;;;;4.45;1.52;;;28.60;33.80;;;;;;5095477;28;20035;-73
2022/06/01 12:33:03;;;;;;;5.78;1.30;;;28.60;33.60;;;;;;5095700;28;20024;-73
2022/06/01 12:35:49;;;;;;;2.17;1.17;;;28.70;33.10;;;;;;5095541;28;20075;-73
2022/06/01 12:38:38;;;;;;;1.52;1.15;;;28.80;33.30;;;;;;5095622;28;20028;-72
2022/06/01 12:41:17;;;;;;;1.83;1.30;;;28.90;33.20;;;;;;5095326;28;20073;-72
2022/06/01 12:43:54;;;;;;;6.75;1.83;;;28.90;32.00;;;;;;5093162;28;20051;-72
2022/06/01 12:46:29;;;;;;;5.95;1.38;;;29.00;32.00;;;;;;5094153;28;20032;-72
2022/06/01 12:49:36;;;;;;;7.28;1.50;;;29.10;32.00;;;;;;5084462;28;20028;-72
2022/06/01 12:52:12;;;;;;;2.42;1.15;;;29.20;32.50;;;;;;5095090;28;20130;-72
2022/06/01 12:54:40;;;;;;;3.45;1.30;;;29.40;32.40;;;;;;5093306;28;20027;-73
2022/06/01 12:57:12;;;;;;;1.50;0.93;;;29.50;31.70;;;;;;5095039;28;20040;-73
2022/06/01 12:59:41;;;;;;;2.30;1.13;;;29.70;32.00;;;;;;5093674;28;20081;-72
2022/06/01 13:02:13;;;;;;;4.82;1.48;;;29.80;31.50;;;;;;5078250;28;20460;-71
2022/06/01 13:04:49;;;;;;;6.97;1.20;;;29.90;30.60;;;;;;5073988;28;20037;-72
2022/06/01 13:07:16;;;;;;;3.38;1.30;;;29.90;30.30;;;;;;5074550;28;20103;-71
2022/06/01 13:09:43;;;;;;;1.70;1.00;;;30.10;30.40;;;;;;5073463;28;20051;-72
2022/06/01 13:12:16;;;;;;;1.65;1.00;;;30.10;30.30;;;;;;5089759;28;20055;-71
2022/06/01 13:14:42;;;;;;;4.32;1.00;;;30.20;30.20;;;;;;5093593;28;20437;-71
2022/06/01 13:17:18;;;;;;;4.15;1.30;;;30.30;31.10;;;;;;5092835;28;20048;-72
2022/06/01 13:19:59;;;;;;;1.40;1.10;;;30.50;29.90;;;;;;5094657;28;20064;-71
2022/06/01 13:22:34;;;;;;;2.35;1.27;;;30.60;29.80;;;;;;5092827;28;20113;-71
2022/06/01 13:25:05;;;;;;;1.25;1.10;;;30.90;29.50;;;;;;5093349;28;20024;-71
2022/06/01 13:27:34;;;;;;;1.38;1.02;;;31.10;29.30;;;;;;5094040;28;20049;-71
2022/06/01 13:30:01;;;;;;;2.78;1.20;;;31.30;28.60;;;;;;5095251;28;20027;-71
2022/06/01 13:32:32;;;;;;;1.70;0.95;;;31.50;28.10;;;;;;5093813;28;20028;-72
2022/06/01 13:35:17;;;;;;;4.07;1.30;;;31.70;27.80;;;;;;5091718;28;20055;-72
2022/06/01 13:37:45;;;;;;;2.20;1.10;;;31.80;28.60;;;;;;5093459;28;20090;-72
2022/06/01 13:40:52;;;;;;;1.60;1.20;;;31.90;27.80;;;;;;5092140;28;20624;-72
2022/06/01 13:43:18;;;;;;;1.58;1.10;;;32.20;29.00;;;;;;5085686;28;20042;-72